sensor_id;sensor_type;location;lat;lon;timestamp;P1;durP1;ratioP1;P2;durP2;ratioP2
56830;SDS011;42713;42.676;23.352;2023-01-08T00:02:17;67.13;;;33.03;;
56830;SDS011;42713;42.676;23.352;2023-01-08T00:04:43;62.60;;;32.45;;
56830;SDS011;42713;42.676;23.352;2023-01-08T00:07:09;69.63;;;33.25;;
56830;SDS011;42713;42.676;23.352;2023-01-08T00:09:34;70.43;;;30.60;;
56830;SDS011;42713;42.676;23.352;2023-01-08T00:12:00;63.53;;;30.90;;
56830;SDS011;42713;42.676;23.352;2023-01-08T00:14:25;60.83;;;30.20;;
56830;SDS011;42713;42.676;23.352;2023-01-08T00:16:51;62.53;;;29.05;;
56830;SDS011;42713;42.676;23.352;2023-01-08T00:19:17;61.25;;;29.00;;
56830;SDS011;42713;42.676;23.352;2023-01-08T00:21:42;63.55;;;31.25;;
56830;SDS011;42713;42.676;23.352;2023-01-08T00:24:10;59.25;;;29.50;;
56830;SDS011;42713;42.676;23.352;2023-01-08T00:26:35;62.75;;;28.88;;
56830;SDS011;42713;42.676;23.352;2023-01-08T00:29:01;62.67;;;28.77;;
56830;SDS011;42713;42.676;23.352;2023-01-08T00:31:26;55.03;;;26.83;;
56830;SDS011;42713;42.676;23.352;2023-01-08T00:33:52;56.45;;;27.30;;
56830;SDS011;42713;42.676;23.352;2023-01-08T00:36:18;55.90;;;28.23;;
56830;SDS011;42713;42.676;23.352;2023-01-08T00:38:44;54.92;;;25.70;;
56830;SDS011;42713;42.676;23.352;2023-01-08T00:41:11;47.40;;;24.98;;
56830;SDS011;42713;42.676;23.352;2023-01-08T00:43:38;59.70;;;25.88;;
56830;SDS011;42713;42.676;23.352;2023-01-08T00:46:04;51.20;;;27.92;;
56830;SDS011;42713;42.676;23.352;2023-01-08T00:48:30;52.88;;;25.88;;
56830;SDS011;42713;42.676;23.352;2023-01-08T00:50:55;48.75;;;24.48;;
56830;SDS011;42713;42.676;23.352;2023-01-08T00:53:21;52.20;;;25.15;;
56830;SDS011;42713;42.676;23.352;2023-01-08T00:55:46;46.92;;;24.10;;
56830;SDS011;42713;42.676;23.352;2023-01-08T00:58:12;49.28;;;22.52;;
56830;SDS011;42713;42.676;23.352;2023-01-08T01:00:38;47.92;;;22.35;;
56830;SDS011;42713;42.676;23.352;2023-01-08T01:03:04;42.03;;;22.08;;
56830;SDS011;42713;42.676;23.352;2023-01-08T01:05:30;44.17;;;21.88;;
56830;SDS011;42713;42.676;23.352;2023-01-08T01:07:55;48.92;;;22.42;;
56830;SDS011;42713;42.676;23.352;2023-01-08T01:10:21;46.95;;;22.95;;
56830;SDS011;42713;42.676;23.352;2023-01-08T01:12:47;46.67;;;23.83;;
56830;SDS011;42713;42.676;23.352;2023-01-08T01:15:14;44.28;;;20.85;;
56830;SDS011;42713;42.676;23.352;2023-01-08T01:17:41;43.28;;;21.60;;
56830;SDS011;42713;42.676;23.352;2023-01-08T01:20:09;41.53;;;20.98;;
56830;SDS011;42713;42.676;23.352;2023-01-08T01:22:37;47.55;;;22.13;;
56830;SDS011;42713;42.676;23.352;2023-01-08T01:25:03;47.40;;;23.05;;
56830;SDS011;42713;42.676;23.352;2023-01-08T01:27:29;47.75;;;23.60;;
56830;SDS011;42713;42.676;23.352;2023-01-08T01:29:55;45.13;;;21.50;;
56830;SDS011;42713;42.676;23.352;2023-01-08T01:32:21;50.75;;;23.35;;
56830;SDS011;42713;42.676;23.352;2023-01-08T01:34:46;50.33;;;24.13;;
56830;SDS011;42713;42.676;23.352;2023-01-08T01:37:12;43.47;;;22.00;;
56830;SDS011;42713;42.676;23.352;2023-01-08T01:39:38;48.28;;;24.17;;
56830;SDS011;42713;42.676;23.352;2023-01-08T01:42:04;47.55;;;24.13;;
56830;SDS011;42713;42.676;23.352;2023-01-08T01:44:48;53.28;;;24.45;;
56830;SDS011;42713;42.676;23.352;2023-01-08T01:49:56;49.13;;;23.88;;
56830;SDS011;42713;42.676;23.352;2023-01-08T01:52:32;52.17;;;25.02;;
56830;SDS011;42713;42.676;23.352;2023-01-08T01:55:00;47.85;;;24.65;;
56830;SDS011;42713;42.676;23.352;2023-01-08T01:57:29;46.28;;;24.17;;
56830;SDS011;42713;42.676;23.352;2023-01-08T01:59:57;52.45;;;26.08;;
56830;SDS011;42713;42.676;23.352;2023-01-08T02:02:24;46.47;;;23.80;;
56830;SDS011;42713;42.676;23.352;2023-01-08T02:04:49;46.33;;;23.92;;
56830;SDS011;42713;42.676;23.352;2023-01-08T02:07:17;51.42;;;24.92;;
56830;SDS011;42713;42.676;23.352;2023-01-08T02:12:44;49.30;;;24.77;;
56830;SDS011;42713;42.676;23.352;2023-01-08T02:18:46;50.25;;;24.23;;
56830;SDS011;42713;42.676;23.352;2023-01-08T02:21:08;55.05;;;26.38;;
56830;SDS011;42713;42.676;23.352;2023-01-08T02:29:08;49.88;;;24.02;;
56830;SDS011;42713;42.676;23.352;2023-01-08T02:31:37;42.25;;;22.95;;
56830;SDS011;42713;42.676;23.352;2023-01-08T02:34:05;43.53;;;21.42;;
56830;SDS011;42713;42.676;23.352;2023-01-08T02:47:24;48.58;;;22.25;;
56830;SDS011;42713;42.676;23.352;2023-01-08T02:50:00;52.65;;;22.13;;
56830;SDS011;42713;42.676;23.352;2023-01-08T02:52:37;44.10;;;22.10;;
56830;SDS011;42713;42.676;23.352;2023-01-08T02:55:07;47.65;;;21.85;;
56830;SDS011;42713;42.676;23.352;2023-01-08T02:57:35;48.67;;;22.83;;
56830;SDS011;42713;42.676;23.352;2023-01-08T03:00:00;47.97;;;23.13;;
56830;SDS011;42713;42.676;23.352;2023-01-08T03:02:27;45.13;;;22.98;;
56830;SDS011;42713;42.676;23.352;2023-01-08T03:04:56;42.50;;;21.95;;
56830;SDS011;42713;42.676;23.352;2023-01-08T03:07:27;43.67;;;22.35;;
56830;SDS011;42713;42.676;23.352;2023-01-08T03:09:53;47.60;;;23.92;;
56830;SDS011;42713;42.676;23.352;2023-01-08T03:13:01;56.35;;;24.35;;
56830;SDS011;42713;42.676;23.352;2023-01-08T03:15:08;44.47;;;23.27;;
56830;SDS011;42713;42.676;23.352;2023-01-08T03:17:43;45.85;;;23.27;;
56830;SDS011;42713;42.676;23.352;2023-01-08T03:20:16;43.13;;;22.50;;
56830;SDS011;42713;42.676;23.352;2023-01-08T03:22:47;43.85;;;21.77;;
56830;SDS011;42713;42.676;23.352;2023-01-08T03:25:16;46.65;;;22.08;;
56830;SDS011;42713;42.676;23.352;2023-01-08T03:27:46;39.10;;;21.23;;
56830;SDS011;42713;42.676;23.352;2023-01-08T03:30:15;46.05;;;21.98;;
56830;SDS011;42713;42.676;23.352;2023-01-08T03:32:42;46.28;;;23.77;;
56830;SDS011;42713;42.676;23.352;2023-01-08T03:35:11;51.25;;;23.15;;
56830;SDS011;42713;42.676;23.352;2023-01-08T03:37:42;52.47;;;24.83;;
56830;SDS011;42713;42.676;23.352;2023-01-08T03:40:15;50.38;;;23.63;;
56830;SDS011;42713;42.676;23.352;2023-01-08T03:42:45;41.17;;;21.20;;
56830;SDS011;42713;42.676;23.352;2023-01-08T03:45:11;44.35;;;21.33;;
56830;SDS011;42713;42.676;23.352;2023-01-08T03:47:37;48.20;;;22.13;;
56830;SDS011;42713;42.676;23.352;2023-01-08T03:50:06;44.72;;;21.27;;
56830;SDS011;42713;42.676;23.352;2023-01-08T03:52:34;48.60;;;22.20;;
56830;SDS011;42713;42.676;23.352;2023-01-08T03:54:59;42.05;;;21.70;;
56830;SDS011;42713;42.676;23.352;2023-01-08T03:57:25;43.70;;;21.98;;
56830;SDS011;42713;42.676;23.352;2023-01-08T03:59:51;46.05;;;21.98;;
56830;SDS011;42713;42.676;23.352;2023-01-08T04:02:16;41.75;;;20.55;;
56830;SDS011;42713;42.676;23.352;2023-01-08T04:04:42;41.55;;;19.27;;
56830;SDS011;42713;42.676;23.352;2023-01-08T04:07:10;42.28;;;22.13;;
56830;SDS011;42713;42.676;23.352;2023-01-08T04:09:36;46.08;;;23.85;;
56830;SDS011;42713;42.676;23.352;2023-01-08T04:12:02;45.35;;;21.15;;
56830;SDS011;42713;42.676;23.352;2023-01-08T04:14:28;46.67;;;22.08;;
56830;SDS011;42713;42.676;23.352;2023-01-08T04:16:53;39.22;;;20.55;;
56830;SDS011;42713;42.676;23.352;2023-01-08T04:19:18;39.28;;;21.25;;
56830;SDS011;42713;42.676;23.352;2023-01-08T04:21:44;43.22;;;22.15;;
56830;SDS011;42713;42.676;23.352;2023-01-08T04:24:10;41.38;;;20.17;;
56830;SDS011;42713;42.676;23.352;2023-01-08T04:26:37;40.72;;;20.58;;
56830;SDS011;42713;42.676;23.352;2023-01-08T04:29:02;40.10;;;20.33;;
56830;SDS011;42713;42.676;23.352;2023-01-08T04:31:28;44.80;;;21.73;;
56830;SDS011;42713;42.676;23.352;2023-01-08T04:33:54;40.58;;;21.45;;
56830;SDS011;42713;42.676;23.352;2023-01-08T04:36:19;40.08;;;21.00;;
56830;SDS011;42713;42.676;23.352;2023-01-08T04:38:45;45.00;;;20.50;;
56830;SDS011;42713;42.676;23.352;2023-01-08T04:41:10;44.42;;;21.70;;
56830;SDS011;42713;42.676;23.352;2023-01-08T04:43:36;42.80;;;21.42;;
56830;SDS011;42713;42.676;23.352;2023-01-08T04:46:02;51.35;;;23.73;;
56830;SDS011;42713;42.676;23.352;2023-01-08T04:48:31;44.38;;;20.90;;
56830;SDS011;42713;42.676;23.352;2023-01-08T04:50:57;40.95;;;23.13;;
56830;SDS011;42713;42.676;23.352;2023-01-08T04:53:24;51.70;;;24.67;;
56830;SDS011;42713;42.676;23.352;2023-01-08T04:55:50;52.00;;;25.25;;
56830;SDS011;42713;42.676;23.352;2023-01-08T04:58:15;50.85;;;26.50;;
56830;SDS011;42713;42.676;23.352;2023-01-08T05:00:41;41.78;;;22.55;;
56830;SDS011;42713;42.676;23.352;2023-01-08T05:03:06;49.30;;;23.67;;
56830;SDS011;42713;42.676;23.352;2023-01-08T05:05:32;50.95;;;26.20;;
56830;SDS011;42713;42.676;23.352;2023-01-08T05:07:59;51.63;;;25.80;;
56830;SDS011;42713;42.676;23.352;2023-01-08T05:10:25;49.83;;;26.38;;
56830;SDS011;42713;42.676;23.352;2023-01-08T05:12:50;50.63;;;26.30;;
56830;SDS011;42713;42.676;23.352;2023-01-08T05:15:16;63.75;;;29.95;;
56830;SDS011;42713;42.676;23.352;2023-01-08T05:17:41;55.80;;;26.63;;
56830;SDS011;42713;42.676;23.352;2023-01-08T05:20:07;64.00;;;30.88;;
56830;SDS011;42713;42.676;23.352;2023-01-08T05:22:33;70.82;;;31.85;;
56830;SDS011;42713;42.676;23.352;2023-01-08T05:24:59;59.30;;;29.60;;
56830;SDS011;42713;42.676;23.352;2023-01-08T05:27:26;66.47;;;31.70;;
56830;SDS011;42713;42.676;23.352;2023-01-08T05:29:53;66.07;;;31.60;;
56830;SDS011;42713;42.676;23.352;2023-01-08T05:32:18;58.65;;;30.90;;
56830;SDS011;42713;42.676;23.352;2023-01-08T05:34:44;64.95;;;30.80;;
56830;SDS011;42713;42.676;23.352;2023-01-08T05:37:10;67.90;;;31.80;;
56830;SDS011;42713;42.676;23.352;2023-01-08T05:39:36;68.00;;;30.95;;
56830;SDS011;42713;42.676;23.352;2023-01-08T05:42:02;59.65;;;31.50;;
56830;SDS011;42713;42.676;23.352;2023-01-08T05:44:28;59.63;;;31.27;;
56830;SDS011;42713;42.676;23.352;2023-01-08T05:46:53;66.25;;;29.65;;
56830;SDS011;42713;42.676;23.352;2023-01-08T05:49:19;56.88;;;29.00;;
56830;SDS011;42713;42.676;23.352;2023-01-08T05:51:47;63.33;;;30.65;;
56830;SDS011;42713;42.676;23.352;2023-01-08T05:54:12;56.20;;;28.48;;
56830;SDS011;42713;42.676;23.352;2023-01-08T05:56:38;53.42;;;28.02;;
56830;SDS011;42713;42.676;23.352;2023-01-08T05:59:03;55.20;;;28.55;;
56830;SDS011;42713;42.676;23.352;2023-01-08T06:01:29;64.95;;;29.40;;
56830;SDS011;42713;42.676;23.352;2023-01-08T06:03:54;58.95;;;28.35;;
56830;SDS011;42713;42.676;23.352;2023-01-08T06:06:20;61.75;;;28.13;;
56830;SDS011;42713;42.676;23.352;2023-01-08T06:08:46;60.13;;;29.10;;
56830;SDS011;42713;42.676;23.352;2023-01-08T06:11:11;64.90;;;30.40;;
56830;SDS011;42713;42.676;23.352;2023-01-08T06:13:39;59.33;;;28.83;;
56830;SDS011;42713;42.676;23.352;2023-01-08T06:16:06;53.20;;;27.48;;
56830;SDS011;42713;42.676;23.352;2023-01-08T06:18:32;52.33;;;28.05;;
56830;SDS011;42713;42.676;23.352;2023-01-08T06:20:58;59.67;;;30.45;;
56830;SDS011;42713;42.676;23.352;2023-01-08T06:23:23;59.00;;;28.65;;
56830;SDS011;42713;42.676;23.352;2023-01-08T06:25:53;51.75;;;27.58;;
56830;SDS011;42713;42.676;23.352;2023-01-08T06:28:20;66.97;;;29.13;;
56830;SDS011;42713;42.676;23.352;2023-01-08T06:30:46;63.75;;;30.05;;
56830;SDS011;42713;42.676;23.352;2023-01-08T06:33:11;57.03;;;27.65;;
56830;SDS011;42713;42.676;23.352;2023-01-08T06:35:36;58.97;;;29.30;;
56830;SDS011;42713;42.676;23.352;2023-01-08T06:38:03;58.92;;;29.67;;
56830;SDS011;42713;42.676;23.352;2023-01-08T06:40:29;60.65;;;29.73;;
56830;SDS011;42713;42.676;23.352;2023-01-08T06:42:54;54.72;;;27.70;;
56830;SDS011;42713;42.676;23.352;2023-01-08T06:45:20;59.00;;;28.95;;
56830;SDS011;42713;42.676;23.352;2023-01-08T06:47:45;64.60;;;29.85;;
56830;SDS011;42713;42.676;23.352;2023-01-08T06:50:11;63.33;;;31.83;;
56830;SDS011;42713;42.676;23.352;2023-01-08T06:52:37;64.65;;;29.65;;
56830;SDS011;42713;42.676;23.352;2023-01-08T06:55:03;61.92;;;30.70;;
56830;SDS011;42713;42.676;23.352;2023-01-08T06:57:30;64.57;;;29.42;;
56830;SDS011;42713;42.676;23.352;2023-01-08T06:59:56;56.42;;;30.10;;
56830;SDS011;42713;42.676;23.352;2023-01-08T07:02:21;57.78;;;30.65;;
56830;SDS011;42713;42.676;23.352;2023-01-08T07:04:47;59.85;;;30.38;;
56830;SDS011;42713;42.676;23.352;2023-01-08T07:07:13;62.08;;;29.55;;
56830;SDS011;42713;42.676;23.352;2023-01-08T07:09:42;54.85;;;28.83;;
56830;SDS011;42713;42.676;23.352;2023-01-08T07:12:14;63.65;;;29.90;;
56830;SDS011;42713;42.676;23.352;2023-01-08T07:14:39;69.78;;;31.30;;
56830;SDS011;42713;42.676;23.352;2023-01-08T07:17:05;58.30;;;28.92;;
56830;SDS011;42713;42.676;23.352;2023-01-08T07:19:31;52.63;;;28.00;;
56830;SDS011;42713;42.676;23.352;2023-01-08T07:21:57;60.03;;;28.05;;
56830;SDS011;42713;42.676;23.352;2023-01-08T07:24:23;68.88;;;30.60;;
56830;SDS011;42713;42.676;23.352;2023-01-08T07:26:48;65.45;;;32.13;;
56830;SDS011;42713;42.676;23.352;2023-01-08T07:29:14;69.78;;;33.55;;
56830;SDS011;42713;42.676;23.352;2023-01-08T07:31:39;65.63;;;32.78;;
56830;SDS011;42713;42.676;23.352;2023-01-08T07:34:05;69.30;;;33.72;;
56830;SDS011;42713;42.676;23.352;2023-01-08T07:36:30;70.55;;;33.42;;
56830;SDS011;42713;42.676;23.352;2023-01-08T07:38:56;70.40;;;34.80;;
56830;SDS011;42713;42.676;23.352;2023-01-08T07:41:21;73.68;;;34.83;;
56830;SDS011;42713;42.676;23.352;2023-01-08T07:43:47;68.70;;;32.53;;
56830;SDS011;42713;42.676;23.352;2023-01-08T07:46:13;65.85;;;34.60;;
56830;SDS011;42713;42.676;23.352;2023-01-08T07:48:39;67.03;;;35.72;;
56830;SDS011;42713;42.676;23.352;2023-01-08T07:51:05;74.13;;;36.30;;
56830;SDS011;42713;42.676;23.352;2023-01-08T07:53:32;76.63;;;37.83;;
56830;SDS011;42713;42.676;23.352;2023-01-08T07:56:02;83.55;;;39.13;;
56830;SDS011;42713;42.676;23.352;2023-01-08T07:58:29;83.70;;;40.95;;
56830;SDS011;42713;42.676;23.352;2023-01-08T08:00:56;82.35;;;39.88;;
56830;SDS011;42713;42.676;23.352;2023-01-08T08:03:22;85.25;;;40.17;;
56830;SDS011;42713;42.676;23.352;2023-01-08T08:05:48;85.13;;;38.92;;
56830;SDS011;42713;42.676;23.352;2023-01-08T08:08:15;78.75;;;38.10;;
56830;SDS011;42713;42.676;23.352;2023-01-08T08:10:41;73.07;;;36.10;;
56830;SDS011;42713;42.676;23.352;2023-01-08T08:13:07;69.82;;;36.00;;
56830;SDS011;42713;42.676;23.352;2023-01-08T08:15:33;65.45;;;34.03;;
56830;SDS011;42713;42.676;23.352;2023-01-08T08:17:59;65.40;;;35.30;;
56830;SDS011;42713;42.676;23.352;2023-01-08T08:20:25;65.93;;;32.42;;
56830;SDS011;42713;42.676;23.352;2023-01-08T08:22:51;60.42;;;31.60;;
56830;SDS011;42713;42.676;23.352;2023-01-08T08:25:17;68.72;;;32.80;;
56830;SDS011;42713;42.676;23.352;2023-01-08T08:27:43;64.43;;;33.78;;
56830;SDS011;42713;42.676;23.352;2023-01-08T08:30:09;72.50;;;36.70;;
56830;SDS011;42713;42.676;23.352;2023-01-08T08:32:36;81.90;;;39.35;;
56830;SDS011;42713;42.676;23.352;2023-01-08T08:35:02;78.88;;;39.95;;
56830;SDS011;42713;42.676;23.352;2023-01-08T08:37:29;80.45;;;37.35;;
56830;SDS011;42713;42.676;23.352;2023-01-08T08:39:54;70.88;;;34.90;;
56830;SDS011;42713;42.676;23.352;2023-01-08T08:42:20;67.57;;;33.80;;
56830;SDS011;42713;42.676;23.352;2023-01-08T08:44:45;60.72;;;31.40;;
56830;SDS011;42713;42.676;23.352;2023-01-08T08:47:11;54.10;;;29.92;;
56830;SDS011;42713;42.676;23.352;2023-01-08T08:49:36;55.88;;;29.35;;
56830;SDS011;42713;42.676;23.352;2023-01-08T08:52:02;57.75;;;28.40;;
56830;SDS011;42713;42.676;23.352;2023-01-08T08:54:28;53.50;;;28.23;;
56830;SDS011;42713;42.676;23.352;2023-01-08T08:56:54;59.38;;;30.05;;
56830;SDS011;42713;42.676;23.352;2023-01-08T08:59:19;52.47;;;27.65;;
56830;SDS011;42713;42.676;23.352;2023-01-08T09:01:45;59.97;;;30.55;;
56830;SDS011;42713;42.676;23.352;2023-01-08T09:04:11;54.97;;;29.85;;
56830;SDS011;42713;42.676;23.352;2023-01-08T09:06:37;52.88;;;26.33;;
56830;SDS011;42713;42.676;23.352;2023-01-08T09:09:02;52.03;;;27.95;;
56830;SDS011;42713;42.676;23.352;2023-01-08T09:11:28;54.42;;;29.60;;
56830;SDS011;42713;42.676;23.352;2023-01-08T09:13:54;54.92;;;27.35;;
56830;SDS011;42713;42.676;23.352;2023-01-08T09:16:20;50.80;;;26.67;;
56830;SDS011;42713;42.676;23.352;2023-01-08T09:18:45;51.42;;;25.35;;
56830;SDS011;42713;42.676;23.352;2023-01-08T09:21:13;49.00;;;23.00;;
56830;SDS011;42713;42.676;23.352;2023-01-08T09:23:38;51.35;;;23.67;;
56830;SDS011;42713;42.676;23.352;2023-01-08T09:26:04;49.95;;;24.23;;
56830;SDS011;42713;42.676;23.352;2023-01-08T09:28:30;36.90;;;18.52;;
56830;SDS011;42713;42.676;23.352;2023-01-08T09:30:59;34.63;;;18.52;;
56830;SDS011;42713;42.676;23.352;2023-01-08T09:33:25;41.92;;;20.27;;
56830;SDS011;42713;42.676;23.352;2023-01-08T09:35:51;33.58;;;17.52;;
56830;SDS011;42713;42.676;23.352;2023-01-08T09:38:16;32.40;;;17.67;;
56830;SDS011;42713;42.676;23.352;2023-01-08T09:40:43;30.00;;;13.98;;
56830;SDS011;42713;42.676;23.352;2023-01-08T09:43:14;27.17;;;14.70;;
56830;SDS011;42713;42.676;23.352;2023-01-08T09:45:43;27.08;;;14.85;;
56830;SDS011;42713;42.676;23.352;2023-01-08T09:48:14;24.93;;;12.70;;
56830;SDS011;42713;42.676;23.352;2023-01-08T09:50:42;24.33;;;11.73;;
56830;SDS011;42713;42.676;23.352;2023-01-08T09:53:12;28.75;;;14.38;;
56830;SDS011;42713;42.676;23.352;2023-01-08T09:58:09;30.58;;;15.48;;
56830;SDS011;42713;42.676;23.352;2023-01-08T10:00:59;31.17;;;16.98;;
56830;SDS011;42713;42.676;23.352;2023-01-08T10:03:28;29.85;;;16.40;;
56830;SDS011;42713;42.676;23.352;2023-01-08T10:05:55;30.50;;;16.63;;
56830;SDS011;42713;42.676;23.352;2023-01-08T10:08:21;36.80;;;17.35;;
56830;SDS011;42713;42.676;23.352;2023-01-08T10:10:46;33.47;;;16.80;;
56830;SDS011;42713;42.676;23.352;2023-01-08T10:13:12;30.55;;;15.80;;
56830;SDS011;42713;42.676;23.352;2023-01-08T10:15:39;31.00;;;16.48;;
56830;SDS011;42713;42.676;23.352;2023-01-08T10:18:06;32.47;;;16.38;;
56830;SDS011;42713;42.676;23.352;2023-01-08T10:20:37;27.95;;;14.80;;
56830;SDS011;42713;42.676;23.352;2023-01-08T10:26:12;34.05;;;14.27;;
56830;SDS011;42713;42.676;23.352;2023-01-08T10:28:32;26.65;;;13.95;;
56830;SDS011;42713;42.676;23.352;2023-01-08T10:31:07;24.30;;;13.45;;
56830;SDS011;42713;42.676;23.352;2023-01-08T10:36:01;31.30;;;13.98;;
56830;SDS011;42713;42.676;23.352;2023-01-08T10:41:17;29.90;;;14.70;;
56830;SDS011;42713;42.676;23.352;2023-01-08T10:46:14;43.92;;;22.00;;
56830;SDS011;42713;42.676;23.352;2023-01-08T10:48:47;36.70;;;20.55;;
56830;SDS011;42713;42.676;23.352;2023-01-08T10:51:17;34.85;;;20.60;;
56830;SDS011;42713;42.676;23.352;2023-01-08T10:53:44;35.83;;;20.33;;
56830;SDS011;42713;42.676;23.352;2023-01-08T10:56:17;40.88;;;20.83;;
56830;SDS011;42713;42.676;23.352;2023-01-08T10:58:45;40.42;;;22.95;;
56830;SDS011;42713;42.676;23.352;2023-01-08T11:01:13;41.00;;;20.80;;
56830;SDS011;42713;42.676;23.352;2023-01-08T11:03:40;44.33;;;22.40;;
56830;SDS011;42713;42.676;23.352;2023-01-08T11:06:09;40.45;;;22.15;;
56830;SDS011;42713;42.676;23.352;2023-01-08T11:11:16;39.63;;;22.83;;
56830;SDS011;42713;42.676;23.352;2023-01-08T11:13:48;42.97;;;21.90;;
56830;SDS011;42713;42.676;23.352;2023-01-08T11:16:20;39.33;;;20.55;;
56830;SDS011;42713;42.676;23.352;2023-01-08T11:18:48;36.97;;;20.90;;
56830;SDS011;42713;42.676;23.352;2023-01-08T11:21:22;37.08;;;20.63;;
56830;SDS011;42713;42.676;23.352;2023-01-08T11:26:47;36.88;;;21.13;;
56830;SDS011;42713;42.676;23.352;2023-01-08T11:32:07;36.83;;;20.40;;
56830;SDS011;42713;42.676;23.352;2023-01-08T11:34:36;36.35;;;19.33;;
56830;SDS011;42713;42.676;23.352;2023-01-08T11:37:51;37.63;;;21.30;;
56830;SDS011;42713;42.676;23.352;2023-01-08T11:39:57;39.15;;;20.80;;
56830;SDS011;42713;42.676;23.352;2023-01-08T11:45:41;38.25;;;20.92;;
56830;SDS011;42713;42.676;23.352;2023-01-08T11:57:28;40.78;;;19.92;;
56830;SDS011;42713;42.676;23.352;2023-01-08T12:02:51;35.63;;;19.35;;
56830;SDS011;42713;42.676;23.352;2023-01-08T12:16:45;40.58;;;17.55;;
56830;SDS011;42713;42.676;23.352;2023-01-08T12:22:21;37.05;;;19.92;;
56830;SDS011;42713;42.676;23.352;2023-01-08T12:27:46;34.58;;;16.33;;
56830;SDS011;42713;42.676;23.352;2023-01-08T12:33:04;33.97;;;16.83;;
56830;SDS011;42713;42.676;23.352;2023-01-08T12:35:38;36.65;;;16.42;;
56830;SDS011;42713;42.676;23.352;2023-01-08T12:38:10;32.55;;;15.68;;
56830;SDS011;42713;42.676;23.352;2023-01-08T12:40:54;31.35;;;16.63;;
56830;SDS011;42713;42.676;23.352;2023-01-08T12:43:29;27.40;;;16.15;;
56830;SDS011;42713;42.676;23.352;2023-01-08T12:45:59;30.35;;;15.50;;
56830;SDS011;42713;42.676;23.352;2023-01-08T12:48:27;32.67;;;16.33;;
56830;SDS011;42713;42.676;23.352;2023-01-08T12:53:36;29.83;;;15.52;;
56830;SDS011;42713;42.676;23.352;2023-01-08T12:59:14;33.60;;;17.00;;
56830;SDS011;42713;42.676;23.352;2023-01-08T13:04:15;31.35;;;15.75;;
56830;SDS011;42713;42.676;23.352;2023-01-08T13:06:51;30.65;;;16.27;;
56830;SDS011;42713;42.676;23.352;2023-01-08T13:09:24;30.90;;;15.90;;
56830;SDS011;42713;42.676;23.352;2023-01-08T13:11:52;30.58;;;16.00;;
56830;SDS011;42713;42.676;23.352;2023-01-08T13:14:19;28.90;;;15.45;;
56830;SDS011;42713;42.676;23.352;2023-01-08T13:16:45;27.92;;;14.82;;
56830;SDS011;42713;42.676;23.352;2023-01-08T13:19:22;30.13;;;15.00;;
56830;SDS011;42713;42.676;23.352;2023-01-08T13:21:51;28.35;;;14.82;;
56830;SDS011;42713;42.676;23.352;2023-01-08T13:26:56;28.55;;;15.32;;
56830;SDS011;42713;42.676;23.352;2023-01-08T13:29:46;29.15;;;14.52;;
56830;SDS011;42713;42.676;23.352;2023-01-08T13:32:23;27.52;;;13.88;;
56830;SDS011;42713;42.676;23.352;2023-01-08T13:37:38;25.63;;;13.55;;
56830;SDS011;42713;42.676;23.352;2023-01-08T13:40:04;27.75;;;14.35;;
56830;SDS011;42713;42.676;23.352;2023-01-08T13:42:49;29.52;;;14.65;;
56830;SDS011;42713;42.676;23.352;2023-01-08T13:45:15;22.92;;;12.98;;
56830;SDS011;42713;42.676;23.352;2023-01-08T13:47:41;27.02;;;14.77;;
56830;SDS011;42713;42.676;23.352;2023-01-08T13:50:18;29.33;;;14.88;;
56830;SDS011;42713;42.676;23.352;2023-01-08T13:52:57;24.25;;;14.38;;
56830;SDS011;42713;42.676;23.352;2023-01-08T13:55:29;26.45;;;14.13;;
56830;SDS011;42713;42.676;23.352;2023-01-08T13:57:58;23.58;;;13.75;;
56830;SDS011;42713;42.676;23.352;2023-01-08T14:00:31;25.85;;;14.65;;
56830;SDS011;42713;42.676;23.352;2023-01-08T14:03:01;28.13;;;13.93;;
56830;SDS011;42713;42.676;23.352;2023-01-08T14:05:28;27.40;;;14.30;;
56830;SDS011;42713;42.676;23.352;2023-01-08T14:08:00;31.65;;;14.25;;
56830;SDS011;42713;42.676;23.352;2023-01-08T14:10:27;25.35;;;14.05;;
56830;SDS011;42713;42.676;23.352;2023-01-08T14:12:54;25.48;;;14.93;;
56830;SDS011;42713;42.676;23.352;2023-01-08T14:15:29;27.70;;;14.88;;
56830;SDS011;42713;42.676;23.352;2023-01-08T14:17:54;27.45;;;15.20;;
56830;SDS011;42713;42.676;23.352;2023-01-08T14:20:23;29.05;;;15.82;;
56830;SDS011;42713;42.676;23.352;2023-01-08T14:22:56;25.45;;;14.63;;
56830;SDS011;42713;42.676;23.352;2023-01-08T14:25:23;25.30;;;14.73;;
56830;SDS011;42713;42.676;23.352;2023-01-08T14:27:59;31.50;;;18.35;;
56830;SDS011;42713;42.676;23.352;2023-01-08T14:30:27;37.65;;;21.25;;
56830;SDS011;42713;42.676;23.352;2023-01-08T14:32:57;39.22;;;21.77;;
56830;SDS011;42713;42.676;23.352;2023-01-08T14:35:28;41.40;;;21.50;;
56830;SDS011;42713;42.676;23.352;2023-01-08T14:37:58;33.53;;;19.70;;
56830;SDS011;42713;42.676;23.352;2023-01-08T14:40:30;35.33;;;16.63;;
56830;SDS011;42713;42.676;23.352;2023-01-08T14:43:07;32.33;;;15.63;;
56830;SDS011;42713;42.676;23.352;2023-01-08T14:45:35;31.95;;;17.38;;
56830;SDS011;42713;42.676;23.352;2023-01-08T14:48:07;27.60;;;16.23;;
56830;SDS011;42713;42.676;23.352;2023-01-08T14:50:43;31.95;;;17.25;;
56830;SDS011;42713;42.676;23.352;2023-01-08T14:56:01;33.97;;;18.27;;
56830;SDS011;42713;42.676;23.352;2023-01-08T14:58:33;36.15;;;18.92;;
56830;SDS011;42713;42.676;23.352;2023-01-08T15:01:05;36.38;;;19.83;;
56830;SDS011;42713;42.676;23.352;2023-01-08T15:05:59;34.63;;;20.20;;
56830;SDS011;42713;42.676;23.352;2023-01-08T15:08:36;33.05;;;18.27;;
56830;SDS011;42713;42.676;23.352;2023-01-08T15:11:03;36.25;;;18.90;;
56830;SDS011;42713;42.676;23.352;2023-01-08T15:13:31;35.85;;;18.75;;
56830;SDS011;42713;42.676;23.352;2023-01-08T15:16:09;35.60;;;17.92;;
56830;SDS011;42713;42.676;23.352;2023-01-08T15:19:06;35.22;;;17.75;;
56830;SDS011;42713;42.676;23.352;2023-01-08T15:21:34;34.30;;;17.90;;
56830;SDS011;42713;42.676;23.352;2023-01-08T15:24:01;34.92;;;18.95;;
56830;SDS011;42713;42.676;23.352;2023-01-08T15:26:28;38.10;;;19.35;;
56830;SDS011;42713;42.676;23.352;2023-01-08T15:28:57;37.45;;;20.08;;
56830;SDS011;42713;42.676;23.352;2023-01-08T15:31:28;41.08;;;21.17;;
56830;SDS011;42713;42.676;23.352;2023-01-08T15:33:56;44.30;;;22.20;;
56830;SDS011;42713;42.676;23.352;2023-01-08T15:36:25;53.78;;;23.52;;
56830;SDS011;42713;42.676;23.352;2023-01-08T15:38:51;50.95;;;24.20;;
56830;SDS011;42713;42.676;23.352;2023-01-08T15:41:18;48.55;;;23.23;;
56830;SDS011;42713;42.676;23.352;2023-01-08T15:44:03;47.65;;;22.15;;
56830;SDS011;42713;42.676;23.352;2023-01-08T15:46:29;46.78;;;23.27;;
56830;SDS011;42713;42.676;23.352;2023-01-08T15:48:54;48.53;;;24.13;;
56830;SDS011;42713;42.676;23.352;2023-01-08T15:51:21;51.67;;;24.52;;
56830;SDS011;42713;42.676;23.352;2023-01-08T15:53:47;54.55;;;25.55;;
56830;SDS011;42713;42.676;23.352;2023-01-08T15:56:13;51.83;;;23.98;;